createdAt,value
2019-02-17T00:00:21.449Z,61.15
2019-02-17T00:02:52.083Z,61.16
2019-02-17T00:05:22.565Z,60.97
2019-02-17T00:07:53.044Z,60.85
2019-02-17T00:10:23.570Z,60.96
2019-02-17T00:12:54.114Z,61.16
2019-02-17T00:15:24.578Z,60.99
2019-02-17T00:17:55.103Z,61.25
2019-02-17T00:20:25.572Z,61.44
2019-02-17T00:22:56.087Z,61.43
2019-02-17T00:25:26.549Z,61.39
2019-02-17T00:27:57.092Z,61.50
2019-02-17T00:30:27.558Z,61.63
2019-02-17T00:32:58.021Z,61.94
2019-02-17T00:35:28.521Z,62.34
2019-02-17T00:37:59.050Z,62.34
2019-02-17T00:40:29.521Z,62.15
2019-02-17T00:43:00.030Z,62.36
2019-02-17T00:45:30.548Z,61.67
2019-02-17T00:48:01.018Z,61.67
2019-02-17T00:50:31.582Z,62.17
2019-02-17T00:53:02.102Z,62.17
2019-02-17T00:55:32.570Z,63.53
2019-02-17T00:58:03.036Z,63.62
2019-02-17T01:00:33.526Z,62.63
2019-02-17T01:03:04.098Z,63.15
2019-02-17T01:05:34.616Z,63.15
2019-02-17T01:08:05.213Z,63.76
2019-02-17T01:10:35.729Z,62.88
2019-02-17T01:13:06.265Z,63.17
2019-02-17T01:15:36.802Z,63.17
2019-02-17T01:18:07.278Z,63.25
2019-02-17T01:20:37.804Z,63.25
2019-02-17T01:23:08.374Z,63.45
2019-02-17T01:25:38.828Z,63.45
2019-02-17T01:28:09.342Z,63.64
2019-02-17T01:30:39.842Z,64.34
2019-02-17T01:33:10.361Z,64.29
2019-02-17T01:35:40.901Z,64.29
2019-02-17T01:38:11.363Z,64.27
2019-02-17T01:40:41.827Z,64.27
2019-02-17T01:43:12.356Z,63.66
2019-02-17T01:45:42.834Z,63.66
2019-02-17T01:48:13.344Z,63.75
2019-02-17T01:50:43.810Z,63.21
2019-02-17T01:53:14.438Z,63.21
2019-02-17T01:55:46.967Z,63.20
2019-02-17T01:58:17.121Z,62.77
2019-02-17T02:00:47.711Z,62.77
2019-02-17T02:03:18.249Z,62.57
2019-02-17T02:05:48.722Z,62.26
2019-02-17T02:08:19.229Z,62.26
2019-02-17T02:10:49.693Z,61.80
2019-02-17T02:13:20.205Z,61.80
2019-02-17T02:15:50.717Z,62.04
2019-02-17T02:18:21.235Z,61.97
2019-02-17T02:20:51.697Z,61.94
2019-02-17T02:23:22.219Z,62.03
2019-02-17T02:25:52.854Z,62.04
2019-02-17T02:28:23.327Z,61.59
2019-02-17T02:30:53.793Z,61.56
2019-02-17T02:33:24.304Z,61.65
2019-02-17T02:35:54.826Z,61.65
2019-02-17T02:38:25.341Z,61.84
2019-02-17T02:40:55.866Z,61.84
2019-02-17T02:43:26.339Z,62.07
2019-02-17T02:45:56.810Z,61.68
2019-02-17T02:48:27.273Z,61.81
2019-02-17T02:50:57.756Z,61.59
2019-02-17T02:53:28.221Z,62.00
2019-02-17T02:55:58.721Z,61.95
2019-02-17T02:58:29.224Z,62.07
2019-02-17T03:00:59.723Z,62.38
2019-02-17T03:03:30.190Z,62.13
2019-02-17T03:06:06.972Z,62.13
2019-02-17T03:08:37.485Z,61.86
2019-02-17T03:11:07.954Z,62.32
2019-02-17T03:13:38.470Z,62.32
2019-02-17T03:16:08.962Z,62.13
2019-02-17T03:18:39.437Z,62.12
2019-02-17T03:21:09.969Z,62.11
2019-02-17T03:23:40.477Z,62.34
2019-02-17T03:26:10.971Z,62.26
2019-02-17T03:28:41.469Z,62.03
2019-02-17T03:31:12.048Z,62.13
2019-02-17T03:33:42.563Z,62.45
2019-02-17T03:36:13.316Z,62.45
2019-02-17T03:38:43.781Z,62.19
2019-02-17T03:41:14.284Z,62.19
2019-02-17T03:43:44.783Z,61.90
2019-02-17T03:46:15.250Z,61.48
2019-02-17T03:48:45.858Z,61.89
2019-02-17T03:51:16.325Z,62.28
2019-02-17T03:53:46.828Z,62.28
2019-02-17T03:56:17.305Z,62.11
2019-02-17T03:58:47.868Z,62.60
2019-02-17T04:01:18.347Z,62.60
2019-02-17T04:03:48.858Z,61.83
2019-02-17T04:06:19.542Z,61.83
2019-02-17T04:08:50.057Z,61.85
2019-02-17T04:11:20.563Z,61.48
2019-02-17T04:13:51.039Z,61.40
2019-02-17T04:16:21.502Z,61.38
2019-02-17T04:18:52.012Z,61.97
2019-02-17T04:21:22.485Z,61.97
2019-02-17T04:23:53.009Z,62.11
2019-02-17T04:26:23.483Z,62.24
2019-02-17T04:28:53.997Z,62.24
2019-02-17T04:31:24.461Z,61.87
2019-02-17T04:33:54.980Z,61.67
2019-02-17T04:36:25.449Z,61.67
2019-02-17T04:38:55.958Z,62.22
2019-02-17T04:41:26.428Z,62.41
2019-02-17T04:43:56.941Z,62.40
2019-02-17T04:46:27.398Z,62.13
2019-02-17T04:48:57.896Z,62.26
2019-02-17T04:51:28.401Z,62.26
2019-02-17T04:53:59.057Z,61.81
2019-02-17T04:56:29.638Z,61.69
2019-02-17T04:59:00.104Z,61.91
2019-02-17T05:01:30.573Z,62.14
2019-02-17T05:04:01.188Z,62.28
2019-02-17T05:06:31.652Z,62.22
2019-02-17T05:09:02.153Z,62.46
2019-02-17T05:11:32.622Z,62.44
2019-02-17T05:14:03.094Z,61.47
2019-02-17T05:16:33.595Z,63.44
2019-02-17T05:19:04.059Z,63.44
2019-02-17T05:21:34.568Z,63.00
2019-02-17T05:24:05.040Z,63.29
2019-02-17T05:26:35.515Z,62.52
2019-02-17T05:29:06.023Z,62.52
2019-02-17T05:31:36.542Z,62.83
2019-02-17T05:34:07.083Z,62.37
2019-02-17T05:36:37.586Z,62.96
2019-02-17T05:39:08.088Z,62.86
2019-02-17T05:41:38.590Z,62.03
2019-02-17T05:44:09.053Z,61.86
2019-02-17T05:46:39.554Z,62.02
2019-02-17T05:49:10.063Z,62.51
2019-02-17T05:51:40.543Z,62.51
2019-02-17T05:54:11.050Z,62.40
2019-02-17T05:56:41.514Z,62.67
2019-02-17T05:59:12.025Z,62.26
2019-02-17T06:01:42.550Z,62.46
2019-02-17T06:04:13.015Z,62.46
2019-02-17T06:06:43.498Z,61.86
2019-02-17T06:09:13.978Z,61.86
2019-02-17T06:11:44.582Z,62.95
2019-02-17T06:14:15.043Z,62.63
2019-02-17T06:16:45.657Z,62.63
2019-02-17T06:19:17.790Z,61.77
2019-02-17T06:21:48.414Z,61.01
2019-02-17T06:24:18.921Z,60.46
2019-02-17T06:26:49.558Z,60.38
2019-02-17T06:29:20.077Z,60.28
2019-02-17T06:31:50.544Z,59.61
2019-02-17T06:34:21.065Z,59.05
2019-02-17T06:36:51.575Z,58.51
2019-02-17T06:39:22.087Z,57.31
2019-02-17T06:41:52.554Z,57.46
2019-02-17T06:44:23.062Z,57.07
2019-02-17T06:46:57.155Z,57.04
2019-02-17T06:49:27.619Z,56.33
2019-02-17T06:51:58.094Z,55.91
2019-02-17T06:54:28.612Z,54.73
2019-02-17T06:57:02.449Z,54.52
2019-02-17T06:59:32.955Z,53.99
2019-02-17T07:02:03.590Z,53.94
2019-02-17T07:04:55.999Z,53.33
2019-02-17T07:07:26.462Z,53.46
2019-02-17T07:09:57.182Z,53.13
2019-02-17T07:12:27.672Z,53.12
2019-02-17T07:14:58.138Z,52.78
2019-02-17T07:17:28.636Z,52.69
2019-02-17T07:19:59.087Z,52.33
2019-02-17T07:22:29.555Z,52.29
2019-02-17T07:25:00.019Z,52.43
2019-02-17T07:27:30.554Z,51.93
2019-02-17T07:30:01.010Z,51.28
2019-02-17T07:32:31.474Z,51.04
2019-02-17T07:35:01.989Z,50.44
2019-02-17T07:37:33.839Z,49.91
2019-02-17T07:40:04.469Z,50.65
2019-02-17T07:42:34.938Z,50.30
2019-02-17T07:45:05.779Z,50.10
2019-02-17T07:47:36.233Z,49.52
2019-02-17T07:50:07.454Z,48.94
2019-02-17T07:52:37.922Z,48.97
2019-02-17T07:55:09.013Z,48.58
2019-02-17T07:57:39.469Z,48.67
2019-02-17T08:00:10.275Z,48.12
2019-02-17T08:02:40.782Z,47.85
2019-02-17T08:05:11.392Z,47.58
2019-02-17T08:07:41.862Z,46.20
2019-02-17T08:10:12.474Z,47.45
2019-02-17T08:12:42.955Z,47.24
2019-02-17T08:15:13.668Z,46.38
2019-02-17T08:17:44.121Z,46.04
2019-02-17T08:20:14.634Z,46.45
2019-02-17T08:22:45.155Z,46.30
2019-02-17T08:25:21.699Z,46.38
2019-02-17T08:27:47.999Z,46.06
2019-02-17T08:30:18.625Z,46.43
2019-02-17T08:32:49.228Z,46.10
2019-02-17T08:35:19.637Z,46.44
2019-02-17T08:37:50.247Z,46.27
2019-02-17T08:40:20.733Z,45.83
2019-02-17T08:42:51.197Z,45.65
2019-02-17T08:45:21.697Z,45.76
2019-02-17T08:47:52.159Z,45.85
2019-02-17T08:50:22.631Z,46.30
2019-02-17T08:52:53.152Z,46.20
2019-02-17T08:55:23.623Z,45.89
2019-02-17T08:57:54.146Z,46.19
2019-02-17T09:00:24.614Z,46.78
2019-02-17T09:02:55.111Z,46.56
2019-02-17T09:05:25.592Z,45.73
2019-02-17T09:07:56.067Z,46.01
2019-02-17T09:10:26.542Z,45.76
2019-02-17T09:12:57.059Z,45.93
2019-02-17T09:15:27.581Z,45.90
2019-02-17T09:17:58.059Z,45.91
2019-02-17T09:20:28.579Z,45.59
2019-02-17T09:22:59.082Z,45.81
2019-02-17T09:25:29.593Z,45.53
2019-02-17T09:28:00.094Z,45.18
2019-02-17T09:30:30.603Z,44.97
2019-02-17T09:33:01.113Z,44.64
2019-02-17T09:35:31.633Z,44.56
2019-02-17T09:38:02.218Z,44.19
2019-02-17T09:40:32.731Z,44.71
2019-02-17T09:43:03.338Z,44.29
2019-02-17T09:45:33.823Z,43.84
2019-02-17T09:48:04.386Z,43.99
2019-02-17T09:50:34.896Z,43.75
2019-02-17T09:53:05.358Z,43.72
2019-02-17T09:55:35.875Z,43.77
2019-02-17T09:58:06.447Z,43.67
2019-02-17T10:00:36.953Z,42.67
2019-02-17T10:03:07.461Z,42.06
2019-02-17T10:05:37.941Z,42.56
2019-02-17T10:08:08.424Z,42.06
2019-02-17T10:10:38.910Z,42.00
2019-02-17T10:13:09.419Z,41.86
2019-02-17T10:15:39.945Z,42.26
2019-02-17T10:18:10.458Z,41.14
2019-02-17T10:20:40.931Z,41.30
2019-02-17T10:23:11.415Z,41.08
2019-02-17T10:25:41.942Z,39.74
2019-02-17T10:28:12.407Z,39.51
2019-02-17T10:30:42.991Z,39.64
2019-02-17T10:33:13.459Z,39.88
2019-02-17T10:35:43.978Z,38.75
2019-02-17T10:38:14.881Z,38.76
2019-02-17T10:40:45.388Z,39.47
2019-02-17T10:43:15.908Z,38.23
2019-02-17T10:45:46.395Z,38.36
2019-02-17T10:48:16.926Z,38.28
2019-02-17T10:50:47.443Z,38.67
2019-02-17T10:53:17.961Z,38.59
2019-02-17T10:55:48.426Z,38.15
2019-02-17T10:58:18.896Z,37.48
2019-02-17T11:00:49.426Z,37.03
2019-02-17T11:03:19.941Z,37.17
2019-02-17T11:05:50.513Z,36.68
2019-02-17T11:08:21.012Z,36.88
2019-02-17T11:10:51.483Z,36.52
2019-02-17T11:13:21.998Z,36.99
2019-02-17T11:15:52.455Z,35.83
2019-02-17T11:18:22.971Z,36.46
2019-02-17T11:20:53.513Z,36.25
2019-02-17T11:23:23.971Z,35.79
2019-02-17T11:25:54.442Z,35.14
2019-02-17T11:28:24.954Z,34.61
2019-02-17T11:30:55.548Z,35.14
2019-02-17T11:33:26.026Z,34.63
2019-02-17T11:35:56.646Z,34.90
2019-02-17T11:38:27.157Z,33.12
2019-02-17T11:40:57.623Z,33.52
2019-02-17T11:43:28.090Z,33.87
2019-02-17T11:45:58.555Z,32.76
2019-02-17T11:48:29.182Z,33.30
2019-02-17T11:50:59.763Z,32.60
2019-02-17T11:53:30.300Z,32.93
2019-02-17T11:56:00.816Z,32.86
2019-02-17T11:58:31.537Z,32.11
2019-02-17T12:01:02.049Z,32.08
2019-02-17T12:03:32.650Z,31.93
2019-02-17T12:06:03.106Z,31.42
2019-02-17T12:08:33.601Z,32.21
2019-02-17T12:11:04.100Z,32.17
2019-02-17T12:13:34.609Z,31.80
2019-02-17T12:16:05.117Z,31.01
2019-02-17T12:18:35.617Z,30.50
2019-02-17T12:21:17.843Z,30.44
2019-02-17T12:24:07.204Z,29.71
2019-02-17T12:26:56.504Z,30.72
2019-02-17T12:29:34.097Z,30.98
2019-02-17T12:32:04.649Z,30.40
2019-02-17T12:34:35.163Z,29.17
2019-02-17T12:37:05.672Z,29.66
2019-02-17T12:39:36.126Z,30.55
2019-02-17T12:42:06.625Z,30.43
2019-02-17T12:44:37.139Z,30.68
2019-02-17T12:47:07.605Z,30.76
2019-02-17T12:49:38.109Z,29.64
2019-02-17T12:52:08.560Z,29.38
2019-02-17T12:54:39.222Z,28.93
2019-02-17T12:57:09.689Z,28.63
2019-02-17T12:59:41.214Z,28.67
2019-02-17T13:02:11.773Z,28.29
2019-02-17T13:04:42.271Z,28.18
2019-02-17T13:07:12.732Z,28.47
2019-02-17T13:09:43.253Z,28.41
2019-02-17T13:12:13.717Z,28.78
2019-02-17T13:14:44.182Z,28.63
2019-02-17T13:17:14.771Z,28.67
2019-02-17T13:19:45.231Z,28.64
2019-02-17T13:22:15.685Z,28.07
2019-02-17T13:24:46.145Z,27.83
2019-02-17T13:27:16.593Z,28.09
2019-02-17T13:29:47.097Z,27.92
2019-02-17T13:32:17.552Z,28.32
2019-02-17T13:34:48.122Z,28.27
2019-02-17T13:37:18.636Z,27.96
2019-02-17T13:39:49.113Z,27.52
2019-02-17T13:42:19.625Z,27.80
2019-02-17T13:44:50.127Z,28.13
2019-02-17T13:47:20.633Z,28.19
2019-02-17T13:49:51.085Z,28.23
2019-02-17T13:52:21.574Z,28.18
2019-02-17T13:54:52.091Z,28.15
2019-02-17T13:57:22.612Z,28.22
2019-02-17T13:59:53.127Z,28.10
2019-02-17T14:02:23.599Z,27.40
2019-02-17T14:04:54.117Z,27.42
2019-02-17T14:07:24.592Z,27.47
2019-02-17T14:09:55.049Z,27.30
2019-02-17T14:12:25.573Z,28.43
2019-02-17T14:14:56.037Z,29.83
2019-02-17T14:17:26.487Z,30.15
2019-02-17T14:19:56.994Z,29.92
2019-02-17T14:22:27.451Z,29.96
2019-02-17T14:24:57.956Z,30.16
2019-02-17T14:27:28.432Z,30.41
2019-02-17T14:29:58.922Z,30.29
2019-02-17T14:32:29.375Z,30.11
2019-02-17T14:34:59.835Z,30.54
2019-02-17T14:37:30.348Z,30.11
2019-02-17T14:40:00.872Z,30.30
2019-02-17T14:42:31.519Z,30.63
2019-02-17T14:45:01.991Z,30.89
2019-02-17T14:47:32.458Z,31.11
2019-02-17T14:50:02.959Z,31.74
2019-02-17T14:52:33.527Z,31.94
2019-02-17T14:55:04.163Z,32.15
2019-02-17T14:57:34.637Z,32.04
2019-02-17T15:00:05.796Z,32.38
2019-02-17T15:02:36.312Z,32.60
2019-02-17T15:05:06.954Z,32.79
2019-02-17T15:07:37.573Z,32.83
2019-02-17T15:10:08.930Z,33.24
2019-02-17T15:12:39.456Z,33.56
2019-02-17T15:15:10.268Z,34.09
2019-02-17T15:17:40.739Z,34.29
2019-02-17T15:20:12.526Z,34.45
2019-02-17T15:22:43.038Z,34.78
2019-02-17T15:25:13.622Z,34.80
2019-02-17T15:27:44.143Z,34.91
2019-02-17T15:30:15.083Z,35.33
2019-02-17T15:32:45.604Z,35.62
2019-02-17T15:35:16.072Z,35.92
2019-02-17T15:37:46.653Z,36.34
2019-02-17T15:40:17.258Z,36.47
2019-02-17T15:42:47.791Z,36.58
2019-02-17T15:45:18.404Z,36.88
2019-02-17T15:47:48.913Z,37.27
2019-02-17T15:50:19.410Z,37.74
2019-02-17T15:52:49.903Z,37.89
2019-02-17T15:55:20.424Z,38.15
2019-02-17T15:57:50.940Z,38.57
2019-02-17T16:00:21.533Z,38.79
2019-02-17T16:02:52.045Z,39.17
2019-02-17T16:05:22.513Z,39.62
2019-02-17T16:07:53.097Z,39.83
2019-02-17T16:10:23.614Z,40.02
2019-02-17T16:12:54.127Z,40.15
2019-02-17T16:15:24.769Z,40.36
2019-02-17T16:17:55.293Z,40.95
2019-02-17T16:20:25.758Z,40.97
2019-02-17T16:22:56.231Z,41.21
2019-02-17T16:25:26.738Z,41.74
2019-02-17T16:27:57.211Z,41.98
2019-02-17T16:30:27.717Z,42.14
2019-02-17T16:32:58.171Z,42.71
2019-02-17T16:35:28.686Z,43.48
2019-02-17T16:37:59.212Z,43.63
2019-02-17T16:40:29.693Z,44.44
2019-02-17T16:43:00.220Z,44.52
2019-02-17T16:45:30.848Z,45.27
2019-02-17T16:48:01.321Z,45.79
2019-02-17T16:50:31.967Z,46.06
2019-02-17T16:53:02.443Z,46.26
2019-02-17T16:55:33.070Z,47.07
2019-02-17T16:58:03.585Z,46.78
2019-02-17T17:00:34.129Z,47.39
2019-02-17T17:03:05.103Z,47.57
2019-02-17T17:05:35.579Z,47.67
2019-02-17T17:08:06.196Z,48.08
2019-02-17T17:10:36.661Z,48.48
2019-02-17T17:13:07.183Z,48.24
2019-02-17T17:15:37.637Z,48.24
2019-02-17T17:18:08.209Z,47.93
2019-02-17T17:20:38.833Z,48.16
2019-02-17T17:23:09.339Z,48.18
2019-02-17T17:25:40.064Z,48.36
2019-02-17T17:28:10.569Z,48.83
2019-02-17T17:30:41.133Z,48.79
2019-02-17T17:33:11.653Z,49.14
2019-02-17T17:35:42.124Z,49.46
2019-02-17T17:38:12.586Z,49.28
2019-02-17T17:40:43.108Z,49.34
2019-02-17T17:43:13.578Z,49.39
2019-02-17T17:45:44.043Z,49.58
2019-02-17T17:48:14.542Z,49.81
2019-02-17T17:50:45.078Z,50.16
2019-02-17T17:53:15.543Z,50.64
2019-02-17T17:55:46.057Z,50.17
2019-02-17T17:58:16.527Z,50.55
2019-02-17T18:00:47.081Z,50.83
2019-02-17T18:03:17.542Z,50.17
2019-02-17T18:05:48.058Z,50.60
2019-02-17T18:08:18.641Z,50.44
2019-02-17T18:10:49.106Z,50.51
2019-02-17T18:13:21.881Z,50.96
2019-02-17T18:15:51.822Z,51.17
2019-02-17T18:18:22.291Z,51.17
2019-02-17T18:20:52.766Z,51.39
2019-02-17T18:23:23.234Z,51.49
2019-02-17T18:25:53.729Z,52.16
2019-02-17T18:28:24.242Z,51.97
2019-02-17T18:30:54.758Z,52.07
2019-02-17T18:33:25.225Z,51.80
2019-02-17T18:35:55.755Z,52.01
2019-02-17T18:38:26.213Z,51.86
2019-02-17T18:40:56.754Z,51.96
2019-02-17T18:43:27.221Z,52.14
2019-02-17T18:45:57.690Z,52.12
2019-02-17T18:48:28.202Z,52.17
2019-02-17T18:50:59.443Z,52.41
2019-02-17T18:53:30.069Z,52.77
2019-02-17T18:56:00.527Z,53.02
2019-02-17T18:58:31.080Z,52.95
2019-02-17T19:01:01.611Z,52.76
2019-02-17T19:03:32.135Z,53.28
2019-02-17T19:06:02.648Z,52.69
2019-02-17T19:08:33.159Z,52.07
2019-02-17T19:11:03.670Z,51.78
2019-02-17T19:13:34.129Z,51.12
2019-02-17T19:16:04.742Z,50.75
2019-02-17T19:18:35.274Z,50.48
2019-02-17T19:21:05.863Z,50.18
2019-02-17T19:23:36.329Z,49.81
2019-02-17T19:26:06.804Z,49.54
2019-02-17T19:28:37.323Z,49.10
2019-02-17T19:31:07.786Z,48.96
2019-02-17T19:33:38.300Z,48.75
2019-02-17T19:36:08.772Z,48.80
2019-02-17T19:38:39.282Z,48.69
2019-02-17T19:41:09.754Z,48.59
2019-02-17T19:43:40.264Z,48.50
2019-02-17T19:46:10.781Z,48.56
2019-02-17T19:48:41.294Z,48.52
2019-02-17T19:51:11.753Z,48.38
2019-02-17T19:53:42.267Z,48.27
2019-02-17T19:56:12.838Z,48.67
2019-02-17T19:58:43.321Z,48.79
2019-02-17T20:01:13.785Z,48.82
2019-02-17T20:03:54.122Z,48.95
2019-02-17T20:06:25.886Z,49.55
2019-02-17T20:08:56.493Z,49.82
2019-02-17T20:11:27.046Z,49.76
2019-02-17T20:13:57.509Z,49.96
2019-02-17T20:16:28.056Z,50.39
2019-02-17T20:18:58.582Z,50.63
2019-02-17T20:21:29.094Z,50.77
2019-02-17T20:23:59.613Z,50.94
2019-02-17T20:26:30.186Z,51.33
2019-02-17T20:29:00.663Z,51.57
2019-02-17T20:31:31.269Z,51.91
2019-02-17T20:34:01.792Z,52.21
2019-02-17T20:36:32.261Z,52.39
2019-02-17T20:39:02.867Z,52.34
2019-02-17T20:41:33.453Z,52.50
2019-02-17T20:44:03.919Z,52.67
2019-02-17T20:46:34.428Z,52.78
2019-02-17T20:49:04.915Z,53.17
2019-02-17T20:51:35.420Z,53.21
2019-02-17T20:54:05.981Z,53.50
2019-02-17T20:56:36.554Z,53.74
2019-02-17T20:59:07.080Z,53.83
2019-02-17T21:01:37.695Z,53.99
2019-02-17T21:04:08.215Z,54.57
2019-02-17T21:06:38.835Z,54.67
2019-02-17T21:09:09.332Z,54.81
2019-02-17T21:11:39.792Z,55.17
2019-02-17T21:14:10.327Z,55.27
2019-02-17T21:16:40.838Z,55.79
2019-02-17T21:19:11.306Z,55.89
2019-02-17T21:21:41.778Z,56.25
2019-02-17T21:24:12.301Z,55.93
2019-02-17T21:26:42.761Z,56.39
2019-02-17T21:29:13.274Z,56.34
2019-02-17T21:31:43.834Z,56.27
2019-02-17T21:34:14.370Z,56.36
2019-02-17T21:36:44.817Z,56.48
2019-02-17T21:39:15.265Z,56.77
2019-02-17T21:41:45.786Z,56.66
2019-02-17T21:44:16.772Z,56.77
2019-02-17T21:46:47.188Z,56.82
2019-02-17T21:49:17.709Z,56.76
2019-02-17T21:51:48.168Z,56.84
2019-02-17T21:54:18.621Z,57.20
2019-02-17T21:56:49.148Z,57.31
2019-02-17T21:59:19.657Z,57.28
2019-02-17T22:01:50.122Z,57.35
2019-02-17T22:04:20.646Z,57.43
2019-02-17T22:06:51.173Z,57.31
2019-02-17T22:09:21.641Z,57.48
2019-02-17T22:11:52.145Z,57.56
2019-02-17T22:14:22.598Z,57.60
2019-02-17T22:16:53.097Z,57.85
2019-02-17T22:19:23.564Z,57.72
2019-02-17T22:21:54.076Z,57.94
2019-02-17T22:24:24.540Z,57.88
2019-02-17T22:26:55.053Z,57.86
2019-02-17T22:29:25.605Z,57.91
2019-02-17T22:31:56.074Z,57.98
2019-02-17T22:34:26.588Z,58.03
2019-02-17T22:36:57.042Z,57.80
2019-02-17T22:39:27.564Z,58.58
2019-02-17T22:41:58.074Z,58.14
2019-02-17T22:44:28.581Z,58.22
2019-02-17T22:46:59.054Z,58.39
2019-02-17T22:49:29.513Z,58.47
2019-02-17T22:52:00.370Z,58.77
2019-02-17T22:54:30.825Z,58.80
2019-02-17T22:57:01.341Z,59.12
2019-02-17T22:59:31.818Z,58.93
2019-02-17T23:02:02.410Z,59.32
2019-02-17T23:04:32.977Z,59.36
2019-02-17T23:07:03.576Z,59.05
2019-02-17T23:09:34.186Z,59.37
2019-02-17T23:12:04.829Z,59.33
2019-02-17T23:14:35.345Z,59.78
2019-02-17T23:17:05.858Z,59.78
2019-02-17T23:19:36.347Z,59.41
2019-02-17T23:22:06.820Z,59.41
2019-02-17T23:24:37.513Z,59.85
2019-02-17T23:27:08.124Z,59.85
2019-02-17T23:29:38.576Z,59.76
2019-02-17T23:32:09.072Z,59.76
2019-02-17T23:34:39.532Z,59.84
2019-02-17T23:37:10.045Z,59.84
2019-02-17T23:39:40.511Z,59.65
2019-02-17T23:42:11.035Z,59.47
2019-02-17T23:44:41.490Z,59.47
2019-02-17T23:47:11.997Z,59.24
2019-02-17T23:49:42.470Z,59.28
2019-02-17T23:52:13.078Z,59.45
2019-02-17T23:54:43.542Z,59.29
2019-02-17T23:57:14.045Z,59.29
2019-02-17T23:59:44.559Z,59.59
